sensor_id;sensor_type;location;lat;lon;timestamp;pressure;altitude;pressure_sealevel;temperature;humidity
79331;BME280;68797;49.782;19.054;2024-01-06T00:00:21;96077.75;;;2.74;99.03
79331;BME280;68797;49.782;19.054;2024-01-06T00:03:09;96079.56;;;2.72;100.00
79331;BME280;68797;49.782;19.054;2024-01-06T00:05:37;96092.47;;;2.81;100.00
79331;BME280;68797;49.782;19.054;2024-01-06T00:08:04;96077.66;;;2.80;100.00
79331;BME280;68797;49.782;19.054;2024-01-06T00:10:31;96090.56;;;2.89;99.60
79331;BME280;68797;49.782;19.054;2024-01-06T00:12:58;96080.91;;;2.91;99.96
79331;BME280;68797;49.782;19.054;2024-01-06T00:15:24;96074.84;;;2.88;99.78
79331;BME280;68797;49.782;19.054;2024-01-06T00:17:54;96064.03;;;3.05;99.85
79331;BME280;68797;49.782;19.054;2024-01-06T00:20:22;96060.22;;;3.18;99.30
79331;BME280;68797;49.782;19.054;2024-01-06T00:22:50;96058.59;;;3.14;99.77
79331;BME280;68797;49.782;19.054;2024-01-06T00:25:16;96058.44;;;3.20;99.89
79331;BME280;68797;49.782;19.054;2024-01-06T00:27:42;96060.66;;;3.38;99.95
79331;BME280;68797;49.782;19.054;2024-01-06T00:30:09;96050.16;;;3.38;100.00
79331;BME280;68797;49.782;19.054;2024-01-06T00:32:36;96052.16;;;3.27;100.00
79331;BME280;68797;49.782;19.054;2024-01-06T00:35:04;96044.44;;;3.94;100.00
79331;BME280;68797;49.782;19.054;2024-01-06T00:37:31;96052.53;;;4.19;99.99
79331;BME280;68797;49.782;19.054;2024-01-06T00:39:59;96038.22;;;4.30;99.14
79331;BME280;68797;49.782;19.054;2024-01-06T00:42:27;96042.91;;;4.50;97.56
79331;BME280;68797;49.782;19.054;2024-01-06T00:44:54;96059.50;;;4.52;97.18
79331;BME280;68797;49.782;19.054;2024-01-06T00:47:20;96055.44;;;4.41;97.01
79331;BME280;68797;49.782;19.054;2024-01-06T00:49:51;96058.00;;;4.09;94.33
79331;BME280;68797;49.782;19.054;2024-01-06T00:52:18;96056.06;;;3.84;94.95
79331;BME280;68797;49.782;19.054;2024-01-06T00:54:46;96059.03;;;3.70;95.60
79331;BME280;68797;49.782;19.054;2024-01-06T00:57:14;96055.94;;;3.53;96.06
79331;BME280;68797;49.782;19.054;2024-01-06T00:59:42;96069.28;;;3.42;97.36
79331;BME280;68797;49.782;19.054;2024-01-06T01:02:08;96063.63;;;3.23;97.67
79331;BME280;68797;49.782;19.054;2024-01-06T01:04:36;96066.41;;;3.15;98.10
79331;BME280;68797;49.782;19.054;2024-01-06T01:07:08;96072.44;;;3.19;99.19
79331;BME280;68797;49.782;19.054;2024-01-06T01:09:35;96073.53;;;3.09;98.27
79331;BME280;68797;49.782;19.054;2024-01-06T01:12:02;96074.63;;;3.00;99.67
79331;BME280;68797;49.782;19.054;2024-01-06T01:14:28;96074.41;;;3.09;100.00
79331;BME280;68797;49.782;19.054;2024-01-06T01:16:55;96064.69;;;3.14;100.00
79331;BME280;68797;49.782;19.054;2024-01-06T01:19:21;96072.44;;;3.19;99.97
79331;BME280;68797;49.782;19.054;2024-01-06T01:21:48;96084.66;;;3.20;99.54
79331;BME280;68797;49.782;19.054;2024-01-06T01:24:14;96062.63;;;3.29;99.36
79331;BME280;68797;49.782;19.054;2024-01-06T01:26:43;96057.56;;;3.19;99.80
79331;BME280;68797;49.782;19.054;2024-01-06T01:29:09;96061.84;;;3.25;99.63
79331;BME280;68797;49.782;19.054;2024-01-06T01:31:38;96062.81;;;3.19;100.00
79331;BME280;68797;49.782;19.054;2024-01-06T01:34:04;96062.66;;;3.27;100.00
79331;BME280;68797;49.782;19.054;2024-01-06T01:36:33;96061.69;;;3.31;100.00
79331;BME280;68797;49.782;19.054;2024-01-06T01:38:59;96059.91;;;3.32;100.00
79331;BME280;68797;49.782;19.054;2024-01-06T01:41:27;96057.16;;;3.38;100.00
79331;BME280;68797;49.782;19.054;2024-01-06T01:43:55;96049.22;;;3.41;100.00
79331;BME280;68797;49.782;19.054;2024-01-06T01:46:27;96048.03;;;3.54;100.00
79331;BME280;68797;49.782;19.054;2024-01-06T01:48:56;96059.94;;;3.69;100.00
79331;BME280;68797;49.782;19.054;2024-01-06T01:51:26;96064.41;;;3.64;99.80
79331;BME280;68797;49.782;19.054;2024-01-06T01:53:53;96064.28;;;3.70;99.39
79331;BME280;68797;49.782;19.054;2024-01-06T01:56:20;96060.22;;;3.57;99.16
79331;BME280;68797;49.782;19.054;2024-01-06T01:58:47;96056.84;;;3.52;99.68
79331;BME280;68797;49.782;19.054;2024-01-06T02:01:15;96072.50;;;3.55;100.00
79331;BME280;68797;49.782;19.054;2024-01-06T02:03:42;96077.72;;;3.55;100.00
79331;BME280;68797;49.782;19.054;2024-01-06T02:06:13;96084.28;;;3.74;100.00
79331;BME280;68797;49.782;19.054;2024-01-06T02:08:41;96083.53;;;3.69;98.24
79331;BME280;68797;49.782;19.054;2024-01-06T02:11:08;96083.13;;;3.48;99.26
79331;BME280;68797;49.782;19.054;2024-01-06T02:13:35;96094.50;;;3.49;98.65
79331;BME280;68797;49.782;19.054;2024-01-06T02:16:05;96085.81;;;3.47;100.00
79331;BME280;68797;49.782;19.054;2024-01-06T02:18:32;96083.09;;;3.50;100.00
79331;BME280;68797;49.782;19.054;2024-01-06T02:21:02;96089.72;;;3.65;99.69
79331;BME280;68797;49.782;19.054;2024-01-06T02:23:30;96076.81;;;3.57;98.77
79331;BME280;68797;49.782;19.054;2024-01-06T02:25:56;96075.44;;;3.41;98.26
79331;BME280;68797;49.782;19.054;2024-01-06T02:28:23;96092.94;;;3.40;99.45
79331;BME280;68797;49.782;19.054;2024-01-06T02:30:51;96083.75;;;3.23;99.74
79331;BME280;68797;49.782;19.054;2024-01-06T02:33:18;96076.78;;;3.20;99.92
79331;BME280;68797;49.782;19.054;2024-01-06T02:35:46;96075.41;;;3.04;98.81
79331;BME280;68797;49.782;19.054;2024-01-06T02:38:13;96069.34;;;3.02;99.34
79331;BME280;68797;49.782;19.054;2024-01-06T02:40:41;96074.03;;;2.86;99.16
79331;BME280;68797;49.782;19.054;2024-01-06T02:43:09;96069.22;;;2.65;99.50
79331;BME280;68797;49.782;19.054;2024-01-06T02:45:37;96076.41;;;2.55;100.00
79331;BME280;68797;49.782;19.054;2024-01-06T02:48:04;96081.41;;;2.66;100.00
79331;BME280;68797;49.782;19.054;2024-01-06T02:50:32;96073.41;;;2.73;99.74
79331;BME280;68797;49.782;19.054;2024-01-06T02:52:59;96084.03;;;2.66;99.51
79331;BME280;68797;49.782;19.054;2024-01-06T02:55:26;96075.19;;;2.73;99.71
79331;BME280;68797;49.782;19.054;2024-01-06T02:57:53;96083.75;;;2.81;99.15
79331;BME280;68797;49.782;19.054;2024-01-06T03:00:20;96074.38;;;2.69;99.11
79331;BME280;68797;49.782;19.054;2024-01-06T03:02:47;96057.16;;;2.57;99.54
79331;BME280;68797;49.782;19.054;2024-01-06T03:05:16;96090.13;;;2.68;98.77
79331;BME280;68797;49.782;19.054;2024-01-06T03:07:43;96083.94;;;2.72;98.39
79331;BME280;68797;49.782;19.054;2024-01-06T03:10:10;96084.03;;;2.66;99.25
79331;BME280;68797;49.782;19.054;2024-01-06T03:12:37;96084.75;;;2.74;99.27
79331;BME280;68797;49.782;19.054;2024-01-06T03:15:04;96065.94;;;2.55;99.20
79331;BME280;68797;49.782;19.054;2024-01-06T03:17:31;96080.38;;;2.74;99.66
79331;BME280;68797;49.782;19.054;2024-01-06T03:19:57;96078.56;;;2.79;99.42
79331;BME280;68797;49.782;19.054;2024-01-06T03:22:24;96073.63;;;2.62;99.65
79331;BME280;68797;49.782;19.054;2024-01-06T03:24:52;96083.00;;;2.74;99.20
79331;BME280;68797;49.782;19.054;2024-01-06T03:27:19;96076.19;;;2.66;99.29
79331;BME280;68797;49.782;19.054;2024-01-06T03:29:46;96068.28;;;2.69;99.54
79331;BME280;68797;49.782;19.054;2024-01-06T03:32:13;96058.69;;;2.69;99.54
79331;BME280;68797;49.782;19.054;2024-01-06T03:34:41;96070.66;;;2.81;99.41
79331;BME280;68797;49.782;19.054;2024-01-06T03:37:08;96075.06;;;2.79;99.67
79331;BME280;68797;49.782;19.054;2024-01-06T03:39:34;96069.13;;;2.71;100.00
79331;BME280;68797;49.782;19.054;2024-01-06T03:42:00;96064.66;;;2.74;100.00
79331;BME280;68797;49.782;19.054;2024-01-06T03:44:28;96063.94;;;2.68;100.00
79331;BME280;68797;49.782;19.054;2024-01-06T03:46:57;96068.25;;;2.70;100.00
79331;BME280;68797;49.782;19.054;2024-01-06T03:49:24;96075.94;;;2.79;100.00
79331;BME280;68797;49.782;19.054;2024-01-06T03:51:52;96062.78;;;2.81;100.00
79331;BME280;68797;49.782;19.054;2024-01-06T03:54:19;96077.34;;;2.94;100.00
79331;BME280;68797;49.782;19.054;2024-01-06T03:56:46;96065.00;;;2.99;100.00
79331;BME280;68797;49.782;19.054;2024-01-06T03:59:12;96073.66;;;3.04;100.00
79331;BME280;68797;49.782;19.054;2024-01-06T04:01:42;96077.75;;;3.16;100.00
79331;BME280;68797;49.782;19.054;2024-01-06T04:04:08;96079.47;;;3.17;100.00
79331;BME280;68797;49.782;19.054;2024-01-06T04:06:35;96082.69;;;3.30;100.00
79331;BME280;68797;49.782;19.054;2024-01-06T04:09:02;96077.47;;;3.28;100.00
79331;BME280;68797;49.782;19.054;2024-01-06T04:11:29;96086.28;;;3.26;100.00
79331;BME280;68797;49.782;19.054;2024-01-06T04:13:56;96093.09;;;3.34;100.00
79331;BME280;68797;49.782;19.054;2024-01-06T04:16:23;96094.84;;;3.34;100.00
79331;BME280;68797;49.782;19.054;2024-01-06T04:18:49;96094.00;;;3.32;100.00
79331;BME280;68797;49.782;19.054;2024-01-06T04:21:16;96087.69;;;3.40;100.00
79331;BME280;68797;49.782;19.054;2024-01-06T04:23:43;96087.00;;;3.32;100.00
79331;BME280;68797;49.782;19.054;2024-01-06T04:26:11;96100.91;;;3.36;100.00
79331;BME280;68797;49.782;19.054;2024-01-06T04:28:38;96101.69;;;3.39;100.00
79331;BME280;68797;49.782;19.054;2024-01-06T04:31:05;96097.38;;;3.37;100.00
79331;BME280;68797;49.782;19.054;2024-01-06T04:33:32;96093.75;;;3.42;100.00
79331;BME280;68797;49.782;19.054;2024-01-06T04:35:59;96100.75;;;3.42;100.00
79331;BME280;68797;49.782;19.054;2024-01-06T04:38:28;96077.97;;;3.45;100.00
79331;BME280;68797;49.782;19.054;2024-01-06T04:40:55;96092.47;;;3.60;100.00
79331;BME280;68797;49.782;19.054;2024-01-06T04:43:22;96088.22;;;3.56;100.00
79331;BME280;68797;49.782;19.054;2024-01-06T04:45:49;96073.91;;;3.69;100.00
79331;BME280;68797;49.782;19.054;2024-01-06T04:48:16;96073.81;;;3.72;100.00
79331;BME280;68797;49.782;19.054;2024-01-06T04:50:43;96054.66;;;3.70;100.00
79331;BME280;68797;49.782;19.054;2024-01-06T04:53:09;96062.94;;;3.88;100.00
79331;BME280;68797;49.782;19.054;2024-01-06T04:55:37;96069.22;;;3.82;100.00
79331;BME280;68797;49.782;19.054;2024-01-06T04:58:03;96060.50;;;3.82;100.00
79331;BME280;68797;49.782;19.054;2024-01-06T05:00:30;96057.91;;;3.80;100.00
79331;BME280;68797;49.782;19.054;2024-01-06T05:02:56;96067.63;;;3.75;100.00
79331;BME280;68797;49.782;19.054;2024-01-06T05:05:23;96056.25;;;3.76;100.00
79331;BME280;68797;49.782;19.054;2024-01-06T05:07:50;96066.09;;;4.02;100.00
79331;BME280;68797;49.782;19.054;2024-01-06T05:10:17;96064.34;;;4.02;100.00
79331;BME280;68797;49.782;19.054;2024-01-06T05:12:43;96069.69;;;3.99;100.00
79331;BME280;68797;49.782;19.054;2024-01-06T05:15:09;96065.34;;;3.97;100.00
79331;BME280;68797;49.782;19.054;2024-01-06T05:17:36;96068.88;;;3.96;100.00
79331;BME280;68797;49.782;19.054;2024-01-06T05:20:04;96079.38;;;3.96;100.00
79331;BME280;68797;49.782;19.054;2024-01-06T05:22:30;96070.81;;;3.89;100.00
79331;BME280;68797;49.782;19.054;2024-01-06T05:24:57;96083.63;;;4.01;100.00
79331;BME280;68797;49.782;19.054;2024-01-06T05:27:24;96068.81;;;3.97;100.00
79331;BME280;68797;49.782;19.054;2024-01-06T05:29:53;96082.56;;;4.07;100.00
79331;BME280;68797;49.782;19.054;2024-01-06T05:32:19;96068.59;;;4.06;100.00
79331;BME280;68797;49.782;19.054;2024-01-06T05:34:46;96082.41;;;4.15;100.00
79331;BME280;68797;49.782;19.054;2024-01-06T05:37:14;96084.84;;;4.21;100.00
79331;BME280;68797;49.782;19.054;2024-01-06T05:39:41;96087.56;;;4.18;100.00
79331;BME280;68797;49.782;19.054;2024-01-06T05:42:10;96078.81;;;4.17;100.00
79331;BME280;68797;49.782;19.054;2024-01-06T05:44:40;96091.84;;;4.22;100.00
79331;BME280;68797;49.782;19.054;2024-01-06T05:47:07;96082.78;;;4.32;100.00
79331;BME280;68797;49.782;19.054;2024-01-06T05:49:34;96088.06;;;4.32;100.00
79331;BME280;68797;49.782;19.054;2024-01-06T05:52:01;96092.66;;;4.24;100.00
79331;BME280;68797;49.782;19.054;2024-01-06T05:54:28;96096.72;;;4.35;100.00
79331;BME280;68797;49.782;19.054;2024-01-06T05:56:55;96094.00;;;4.38;100.00
79331;BME280;68797;49.782;19.054;2024-01-06T05:59:22;96103.53;;;4.43;100.00
79331;BME280;68797;49.782;19.054;2024-01-06T06:01:48;96101.03;;;4.38;100.00
79331;BME280;68797;49.782;19.054;2024-01-06T06:04:16;96105.91;;;4.52;100.00
79331;BME280;68797;49.782;19.054;2024-01-06T06:06:43;96100.50;;;4.58;100.00
79331;BME280;68797;49.782;19.054;2024-01-06T06:09:10;96109.63;;;4.76;100.00
79331;BME280;68797;49.782;19.054;2024-01-06T06:11:36;96105.75;;;4.58;100.00
79331;BME280;68797;49.782;19.054;2024-01-06T06:14:03;96106.88;;;4.49;100.00
79331;BME280;68797;49.782;19.054;2024-01-06T06:16:30;96104.31;;;4.46;100.00
79331;BME280;68797;49.782;19.054;2024-01-06T06:18:57;96111.25;;;4.49;100.00
79331;BME280;68797;49.782;19.054;2024-01-06T06:21:24;96102.75;;;4.39;100.00
79331;BME280;68797;49.782;19.054;2024-01-06T06:23:52;96111.50;;;4.40;100.00
79331;BME280;68797;49.782;19.054;2024-01-06T06:26:19;96111.59;;;4.36;100.00
79331;BME280;68797;49.782;19.054;2024-01-06T06:28:46;96116.78;;;4.38;100.00
79331;BME280;68797;49.782;19.054;2024-01-06T06:31:13;96106.94;;;4.46;100.00
79331;BME280;68797;49.782;19.054;2024-01-06T06:33:40;96124.53;;;4.43;100.00
79331;BME280;68797;49.782;19.054;2024-01-06T06:36:07;96125.53;;;4.38;100.00
79331;BME280;68797;49.782;19.054;2024-01-06T06:38:34;96127.88;;;4.49;100.00
79331;BME280;68797;49.782;19.054;2024-01-06T06:41:01;96135.78;;;4.48;100.00
79331;BME280;68797;49.782;19.054;2024-01-06T06:43:28;96133.22;;;4.46;100.00
79331;BME280;68797;49.782;19.054;2024-01-06T06:45:56;96131.44;;;4.47;100.00
79331;BME280;68797;49.782;19.054;2024-01-06T06:48:22;96132.47;;;4.41;100.00
79331;BME280;68797;49.782;19.054;2024-01-06T06:50:49;96136.06;;;4.37;100.00
79331;BME280;68797;49.782;19.054;2024-01-06T06:53:16;96114.31;;;4.32;100.00
79331;BME280;68797;49.782;19.054;2024-01-06T06:55:44;96120.56;;;4.28;100.00
79331;BME280;68797;49.782;19.054;2024-01-06T06:58:10;96134.25;;;4.39;100.00
79331;BME280;68797;49.782;19.054;2024-01-06T07:00:36;96119.41;;;4.38;100.00
79331;BME280;68797;49.782;19.054;2024-01-06T07:03:04;96124.81;;;4.32;100.00
79331;BME280;68797;49.782;19.054;2024-01-06T07:05:32;96125.75;;;4.29;100.00
79331;BME280;68797;49.782;19.054;2024-01-06T07:08:02;96121.22;;;4.36;100.00
79331;BME280;68797;49.782;19.054;2024-01-06T07:10:28;96122.53;;;4.52;100.00
79331;BME280;68797;49.782;19.054;2024-01-06T07:12:56;96112.88;;;4.53;100.00
79331;BME280;68797;49.782;19.054;2024-01-06T07:15:22;96117.22;;;4.55;100.00
79331;BME280;68797;49.782;19.054;2024-01-06T07:17:49;96124.81;;;4.66;100.00
79331;BME280;68797;49.782;19.054;2024-01-06T07:20:16;96116.13;;;4.62;100.00
79331;BME280;68797;49.782;19.054;2024-01-06T07:22:43;96118.59;;;4.69;100.00
79331;BME280;68797;49.782;19.054;2024-01-06T07:25:11;96114.25;;;4.68;100.00
79331;BME280;68797;49.782;19.054;2024-01-06T07:27:38;96120.09;;;4.79;100.00
79331;BME280;68797;49.782;19.054;2024-01-06T07:30:05;96127.56;;;4.92;100.00
79331;BME280;68797;49.782;19.054;2024-01-06T07:32:35;96119.78;;;4.89;100.00
79331;BME280;68797;49.782;19.054;2024-01-06T07:35:02;96122.13;;;5.00;100.00
79331;BME280;68797;49.782;19.054;2024-01-06T07:37:33;96137.59;;;5.09;100.00
79331;BME280;68797;49.782;19.054;2024-01-06T07:40:00;96121.16;;;5.03;100.00
79331;BME280;68797;49.782;19.054;2024-01-06T07:42:27;96134.03;;;5.12;100.00
79331;BME280;68797;49.782;19.054;2024-01-06T07:44:54;96121.81;;;5.09;100.00
79331;BME280;68797;49.782;19.054;2024-01-06T07:47:21;96144.16;;;5.25;100.00
79331;BME280;68797;49.782;19.054;2024-01-06T07:49:48;96151.09;;;5.28;100.00
79331;BME280;68797;49.782;19.054;2024-01-06T07:52:16;96142.53;;;5.21;100.00
79331;BME280;68797;49.782;19.054;2024-01-06T07:54:44;96148.41;;;5.30;100.00
79331;BME280;68797;49.782;19.054;2024-01-06T07:57:35;96147.56;;;5.29;100.00
79331;BME280;68797;49.782;19.054;2024-01-06T08:00:21;96145.19;;;5.20;100.00
79331;BME280;68797;49.782;19.054;2024-01-06T08:02:48;96152.19;;;5.21;100.00
79331;BME280;68797;49.782;19.054;2024-01-06T08:05:17;96154.69;;;5.25;100.00
79331;BME280;68797;49.782;19.054;2024-01-06T08:07:44;96158.06;;;5.29;100.00
79331;BME280;68797;49.782;19.054;2024-01-06T08:10:14;96161.44;;;5.34;100.00
79331;BME280;68797;49.782;19.054;2024-01-06T08:12:41;96162.16;;;5.39;100.00
79331;BME280;68797;49.782;19.054;2024-01-06T08:15:08;96161.75;;;5.53;100.00
79331;BME280;68797;49.782;19.054;2024-01-06T08:17:36;96165.38;;;5.49;100.00
79331;BME280;68797;49.782;19.054;2024-01-06T08:20:23;96161.19;;;5.43;100.00
79331;BME280;68797;49.782;19.054;2024-01-06T08:22:50;96167.31;;;5.44;100.00
79331;BME280;68797;49.782;19.054;2024-01-06T08:25:17;96168.28;;;5.40;100.00
79331;BME280;68797;49.782;19.054;2024-01-06T08:27:44;96167.41;;;5.39;100.00
79331;BME280;68797;49.782;19.054;2024-01-06T08:30:11;96169.06;;;5.43;100.00
79331;BME280;68797;49.782;19.054;2024-01-06T08:32:38;96168.19;;;5.43;100.00
79331;BME280;68797;49.782;19.054;2024-01-06T08:35:05;96170.66;;;5.49;100.00
79331;BME280;68797;49.782;19.054;2024-01-06T08:37:32;96171.56;;;5.48;100.00
79331;BME280;68797;49.782;19.054;2024-01-06T08:39:59;96169.78;;;5.48;100.00
79331;BME280;68797;49.782;19.054;2024-01-06T08:42:25;96168.94;;;5.48;100.00
79331;BME280;68797;49.782;19.054;2024-01-06T08:45:12;96171.50;;;5.49;100.00
79331;BME280;68797;49.782;19.054;2024-01-06T08:47:40;96174.94;;;5.51;100.00
79331;BME280;68797;49.782;19.054;2024-01-06T08:50:07;96169.94;;;5.44;100.00
79331;BME280;68797;49.782;19.054;2024-01-06T08:52:34;96178.69;;;5.43;100.00
79331;BME280;68797;49.782;19.054;2024-01-06T08:55:01;96167.63;;;5.33;100.00
79331;BME280;68797;49.782;19.054;2024-01-06T08:57:29;96176.13;;;5.41;100.00
79331;BME280;68797;49.782;19.054;2024-01-06T08:59:56;96172.50;;;5.45;100.00
79331;BME280;68797;49.782;19.054;2024-01-06T09:02:22;96175.19;;;5.44;100.00
79331;BME280;68797;49.782;19.054;2024-01-06T09:04:49;96182.09;;;5.48;100.00
79331;BME280;68797;49.782;19.054;2024-01-06T09:07:16;96185.25;;;5.59;100.00
79331;BME280;68797;49.782;19.054;2024-01-06T09:09:44;96186.28;;;5.53;100.00
79331;BME280;68797;49.782;19.054;2024-01-06T09:12:11;96191.69;;;5.49;100.00
79331;BME280;68797;49.782;19.054;2024-01-06T09:14:38;96180.41;;;5.45;100.00
79331;BME280;68797;49.782;19.054;2024-01-06T09:17:08;96175.00;;;5.50;100.00
79331;BME280;68797;49.782;19.054;2024-01-06T09:19:35;96179.88;;;5.62;100.00
79331;BME280;68797;49.782;19.054;2024-01-06T09:22:02;96179.19;;;5.57;100.00
79331;BME280;68797;49.782;19.054;2024-01-06T09:24:29;96177.38;;;5.59;100.00
79331;BME280;68797;49.782;19.054;2024-01-06T09:26:56;96186.94;;;5.62;100.00
79331;BME280;68797;49.782;19.054;2024-01-06T09:29:22;96183.31;;;5.66;100.00
79331;BME280;68797;49.782;19.054;2024-01-06T09:31:49;96185.91;;;5.67;100.00
79331;BME280;68797;49.782;19.054;2024-01-06T09:34:17;96185.78;;;5.70;100.00
79331;BME280;68797;49.782;19.054;2024-01-06T09:36:45;96167.31;;;5.72;100.00
79331;BME280;68797;49.782;19.054;2024-01-06T09:39:12;96177.72;;;5.76;100.00
79331;BME280;68797;49.782;19.054;2024-01-06T09:41:39;96163.78;;;5.73;100.00
79331;BME280;68797;49.782;19.054;2024-01-06T09:44:07;96162.16;;;5.69;100.00
79331;BME280;68797;49.782;19.054;2024-01-06T09:46:34;96174.41;;;5.70;100.00
79331;BME280;68797;49.782;19.054;2024-01-06T09:49:12;96162.16;;;5.69;100.00
79331;BME280;68797;49.782;19.054;2024-01-06T09:51:42;96172.81;;;5.64;100.00
79331;BME280;68797;49.782;19.054;2024-01-06T09:54:09;96176.19;;;5.69;100.00
79331;BME280;68797;49.782;19.054;2024-01-06T09:56:39;96170.88;;;5.71;100.00
79331;BME280;68797;49.782;19.054;2024-01-06T09:59:06;96170.91;;;5.69;100.00
79331;BME280;68797;49.782;19.054;2024-01-06T10:01:32;96179.53;;;5.74;100.00
79331;BME280;68797;49.782;19.054;2024-01-06T10:04:01;96172.47;;;5.76;100.00
79331;BME280;68797;49.782;19.054;2024-01-06T10:06:31;96179.31;;;5.82;100.00
79331;BME280;68797;49.782;19.054;2024-01-06T10:09:04;96167.84;;;5.83;100.00
79331;BME280;68797;49.782;19.054;2024-01-06T10:11:31;96183.41;;;5.92;100.00
79331;BME280;68797;49.782;19.054;2024-01-06T10:13:58;96181.81;;;5.85;100.00
79331;BME280;68797;49.782;19.054;2024-01-06T10:16:25;96185.84;;;5.69;100.00
79331;BME280;68797;49.782;19.054;2024-01-06T10:18:53;96195.50;;;5.68;100.00
79331;BME280;68797;49.782;19.054;2024-01-06T10:21:25;96183.31;;;5.66;100.00
79331;BME280;68797;49.782;19.054;2024-01-06T10:23:54;96185.22;;;5.61;100.00
79331;BME280;68797;49.782;19.054;2024-01-06T10:26:21;96184.06;;;5.40;100.00
79331;BME280;68797;49.782;19.054;2024-01-06T10:28:48;96187.09;;;5.26;100.00
79331;BME280;68797;49.782;19.054;2024-01-06T10:31:19;96184.75;;;5.15;100.00
79331;BME280;68797;49.782;19.054;2024-01-06T10:33:49;96173.47;;;5.12;100.00
79331;BME280;68797;49.782;19.054;2024-01-06T10:39:09;96171.56;;;5.17;100.00
79331;BME280;68797;49.782;19.054;2024-01-06T10:41:38;96175.91;;;5.18;100.00
79331;BME280;68797;49.782;19.054;2024-01-06T10:44:12;96177.84;;;5.13;100.00
79331;BME280;68797;49.782;19.054;2024-01-06T10:46:41;96176.41;;;5.01;100.00
79331;BME280;68797;49.782;19.054;2024-01-06T10:49:09;96174.41;;;5.09;100.00
79331;BME280;68797;49.782;19.054;2024-01-06T10:51:44;96163.88;;;5.11;100.00
79331;BME280;68797;49.782;19.054;2024-01-06T10:54:14;96160.09;;;5.19;100.00
79331;BME280;68797;49.782;19.054;2024-01-06T10:56:42;96159.19;;;5.20;100.00
79331;BME280;68797;49.782;19.054;2024-01-06T10:59:12;96163.03;;;5.40;100.00
79331;BME280;68797;49.782;19.054;2024-01-06T11:01:39;96161.56;;;5.30;100.00
79331;BME280;68797;49.782;19.054;2024-01-06T11:04:06;96165.34;;;5.21;100.00
79331;BME280;68797;49.782;19.054;2024-01-06T11:06:33;96168.00;;;5.19;100.00
79331;BME280;68797;49.782;19.054;2024-01-06T11:09:14;96169.03;;;5.14;100.00
79331;BME280;68797;49.782;19.054;2024-01-06T11:11:44;96165.69;;;5.07;100.00
79331;BME280;68797;49.782;19.054;2024-01-06T11:14:35;96162.88;;;5.15;100.00
79331;BME280;68797;49.782;19.054;2024-01-06T11:17:05;96162.13;;;5.10;100.00
79331;BME280;68797;49.782;19.054;2024-01-06T11:24:49;96153.22;;;5.15;100.00
79331;BME280;68797;49.782;19.054;2024-01-06T11:27:20;96146.44;;;5.07;100.00
79331;BME280;68797;49.782;19.054;2024-01-06T11:29:51;96146.34;;;5.11;100.00
79331;BME280;68797;49.782;19.054;2024-01-06T11:32:31;96154.03;;;5.17;100.00
79331;BME280;68797;49.782;19.054;2024-01-06T11:35:11;96148.97;;;5.11;100.00
79331;BME280;68797;49.782;19.054;2024-01-06T11:42:46;96134.75;;;4.86;100.00
79331;BME280;68797;49.782;19.054;2024-01-06T11:45:14;96145.97;;;4.92;100.00
79331;BME280;68797;49.782;19.054;2024-01-06T11:47:48;96155.34;;;5.03;100.00
79331;BME280;68797;49.782;19.054;2024-01-06T11:50:16;96160.50;;;5.06;100.00
79331;BME280;68797;49.782;19.054;2024-01-06T11:52:44;96151.03;;;4.99;100.00
79331;BME280;68797;49.782;19.054;2024-01-06T11:55:11;96137.38;;;4.86;100.00
79331;BME280;68797;49.782;19.054;2024-01-06T11:57:41;96148.56;;;4.94;100.00
79331;BME280;68797;49.782;19.054;2024-01-06T12:00:10;96147.75;;;4.92;100.00
79331;BME280;68797;49.782;19.054;2024-01-06T12:02:36;96150.47;;;4.87;100.00
79331;BME280;68797;49.782;19.054;2024-01-06T12:05:12;96155.00;;;4.82;100.00
79331;BME280;68797;49.782;19.054;2024-01-06T12:07:42;96174.41;;;4.78;100.00
79331;BME280;68797;49.782;19.054;2024-01-06T12:10:11;96175.47;;;4.71;100.00
79331;BME280;68797;49.782;19.054;2024-01-06T12:12:38;96159.84;;;4.65;100.00
79331;BME280;68797;49.782;19.054;2024-01-06T12:15:07;96158.63;;;4.46;100.00
79331;BME280;68797;49.782;19.054;2024-01-06T12:17:39;96168.41;;;4.39;100.00
79331;BME280;68797;49.782;19.054;2024-01-06T12:20:10;96149.56;;;4.23;100.00
79331;BME280;68797;49.782;19.054;2024-01-06T12:22:36;96162.09;;;4.12;100.00
79331;BME280;68797;49.782;19.054;2024-01-06T12:25:10;96169.22;;;4.05;100.00
79331;BME280;68797;49.782;19.054;2024-01-06T12:27:41;96179.13;;;3.94;100.00
79331;BME280;68797;49.782;19.054;2024-01-06T12:30:34;96187.94;;;3.92;100.00
79331;BME280;68797;49.782;19.054;2024-01-06T12:33:10;96176.91;;;3.77;100.00
79331;BME280;68797;49.782;19.054;2024-01-06T12:35:42;96180.63;;;3.67;100.00
79331;BME280;68797;49.782;19.054;2024-01-06T12:38:09;96173.72;;;3.63;100.00
79331;BME280;68797;49.782;19.054;2024-01-06T12:40:41;96173.03;;;3.55;100.00
79331;BME280;68797;49.782;19.054;2024-01-06T12:43:08;96183.41;;;3.60;100.00
79331;BME280;68797;49.782;19.054;2024-01-06T12:45:35;96177.38;;;3.56;100.00
79331;BME280;68797;49.782;19.054;2024-01-06T12:48:03;96181.63;;;3.62;100.00
79331;BME280;68797;49.782;19.054;2024-01-06T12:50:34;96183.75;;;3.44;100.00
79331;BME280;68797;49.782;19.054;2024-01-06T12:53:00;96185.09;;;3.20;100.00
79331;BME280;68797;49.782;19.054;2024-01-06T12:55:27;96185.03;;;3.25;100.00
79331;BME280;68797;49.782;19.054;2024-01-06T12:57:54;96197.72;;;3.45;100.00
79331;BME280;68797;49.782;19.054;2024-01-06T13:00:26;96193.22;;;3.50;100.00
79331;BME280;68797;49.782;19.054;2024-01-06T13:02:53;96186.16;;;3.55;100.00
79331;BME280;68797;49.782;19.054;2024-01-06T13:05:20;96192.06;;;3.63;100.00
79331;BME280;68797;49.782;19.054;2024-01-06T13:07:47;96189.47;;;3.62;100.00
79331;BME280;68797;49.782;19.054;2024-01-06T13:10:18;96180.16;;;3.48;100.00